sensor_id;sensor_type;location;lat;lon;timestamp;pressure;altitude;pressure_sealevel;temperature;humidity
21803;BME280;18591;47.080;22.214;2023-01-31T00:00:54;99124.19;;;4.17;61.79
21803;BME280;18591;47.080;22.214;2023-01-31T00:02:59;99126.84;;;4.17;61.55
21803;BME280;18591;47.080;22.214;2023-01-31T00:05:04;99124.19;;;4.15;61.84
21803;BME280;18591;47.080;22.214;2023-01-31T00:07:06;99129.38;;;4.21;61.52
21803;BME280;18591;47.080;22.214;2023-01-31T00:09:10;99140.13;;;4.17;61.72
21803;BME280;18591;47.080;22.214;2023-01-31T00:11:15;99146.19;;;4.23;61.45
21803;BME280;18591;47.080;22.214;2023-01-31T00:13:18;99145.31;;;4.23;61.64
21803;BME280;18591;47.080;22.214;2023-01-31T00:15:20;99149.72;;;4.25;61.92
21803;BME280;18591;47.080;22.214;2023-01-31T00:17:22;99144.31;;;4.30;61.49
21803;BME280;18591;47.080;22.214;2023-01-31T00:19:26;99143.44;;;4.29;61.78
21803;BME280;18591;47.080;22.214;2023-01-31T00:21:31;99136.34;;;4.30;61.18
21803;BME280;18591;47.080;22.214;2023-01-31T00:23:37;99137.22;;;4.29;61.75
21803;BME280;18591;47.080;22.214;2023-01-31T00:25:39;99143.31;;;4.34;61.74
21803;BME280;18591;47.080;22.214;2023-01-31T00:27:42;99145.97;;;4.35;61.07
21803;BME280;18591;47.080;22.214;2023-01-31T00:29:45;99151.22;;;4.39;61.12
21803;BME280;18591;47.080;22.214;2023-01-31T00:31:50;99152.38;;;4.24;61.75
21803;BME280;18591;47.080;22.214;2023-01-31T00:33:53;99156.69;;;4.31;61.47
21803;BME280;18591;47.080;22.214;2023-01-31T00:35:55;99148.53;;;4.40;61.03
21803;BME280;18591;47.080;22.214;2023-01-31T00:37:58;99140.66;;;4.34;61.53
21803;BME280;18591;47.080;22.214;2023-01-31T00:40:01;99137.22;;;4.29;61.65
21803;BME280;18591;47.080;22.214;2023-01-31T00:42:05;99144.47;;;4.22;61.98
21803;BME280;18591;47.080;22.214;2023-01-31T00:44:07;99139.09;;;4.24;62.01
21803;BME280;18591;47.080;22.214;2023-01-31T00:46:11;99138.16;;;4.26;61.74
21803;BME280;18591;47.080;22.214;2023-01-31T00:48:14;99132.75;;;4.31;61.88
21803;BME280;18591;47.080;22.214;2023-01-31T00:50:16;99131.91;;;4.29;61.92
21803;BME280;18591;47.080;22.214;2023-01-31T00:52:18;99127.50;;;4.26;61.65
21803;BME280;18591;47.080;22.214;2023-01-31T00:54:20;99132.75;;;4.31;61.52
21803;BME280;18591;47.080;22.214;2023-01-31T00:56:24;99145.19;;;4.29;62.03
21803;BME280;18591;47.080;22.214;2023-01-31T00:58:27;99148.75;;;4.29;61.78
21803;BME280;18591;47.080;22.214;2023-01-31T01:00:30;99143.38;;;4.32;61.61
21803;BME280;18591;47.080;22.214;2023-01-31T01:02:32;99146.91;;;4.33;61.74
21803;BME280;18591;47.080;22.214;2023-01-31T01:04:35;99143.38;;;4.32;61.88
21803;BME280;18591;47.080;22.214;2023-01-31T01:06:38;99146.03;;;4.32;61.75
21803;BME280;18591;47.080;22.214;2023-01-31T01:08:45;99151.22;;;4.39;61.20
21803;BME280;18591;47.080;22.214;2023-01-31T01:10:50;99145.00;;;4.40;61.19
21803;BME280;18591;47.080;22.214;2023-01-31T01:12:52;99144.97;;;4.41;61.31
21803;BME280;18591;47.080;22.214;2023-01-31T01:14:54;99129.78;;;4.46;60.82
21803;BME280;18591;47.080;22.214;2023-01-31T01:17:01;99117.66;;;4.31;61.25
21803;BME280;18591;47.080;22.214;2023-01-31T01:19:10;99114.06;;;4.35;61.44
21803;BME280;18591;47.080;22.214;2023-01-31T01:21:16;99112.19;;;4.39;61.05
21803;BME280;18591;47.080;22.214;2023-01-31T01:23:19;99104.97;;;4.47;60.95
21803;BME280;18591;47.080;22.214;2023-01-31T01:25:21;99105.06;;;4.43;61.32
21803;BME280;18591;47.080;22.214;2023-01-31T01:27:26;99107.78;;;4.40;61.18
21803;BME280;18591;47.080;22.214;2023-01-31T01:29:28;99121.03;;;4.41;60.88
21803;BME280;18591;47.080;22.214;2023-01-31T01:31:30;99124.56;;;4.42;60.96
21803;BME280;18591;47.080;22.214;2023-01-31T01:33:34;99123.81;;;4.35;61.23
21803;BME280;18591;47.080;22.214;2023-01-31T01:35:36;99130.78;;;4.42;61.20
21803;BME280;18591;47.080;22.214;2023-01-31T01:37:41;99125.47;;;4.41;60.92
21803;BME280;18591;47.080;22.214;2023-01-31T01:39:43;99127.22;;;4.42;60.82
21803;BME280;18591;47.080;22.214;2023-01-31T01:41:46;99121.94;;;4.40;61.14
21803;BME280;18591;47.080;22.214;2023-01-31T01:43:54;99131.75;;;4.36;60.90
21803;BME280;18591;47.080;22.214;2023-01-31T01:45:56;99142.34;;;4.40;61.07
21803;BME280;18591;47.080;22.214;2023-01-31T01:48:02;99140.72;;;4.32;61.19
21803;BME280;18591;47.080;22.214;2023-01-31T01:52:16;99132.81;;;4.29;61.76
21803;BME280;18591;47.080;22.214;2023-01-31T01:54:26;99138.84;;;4.36;61.35
21803;BME280;18591;47.080;22.214;2023-01-31T01:56:36;99130.88;;;4.36;61.54
21803;BME280;18591;47.080;22.214;2023-01-31T01:58:50;99131.03;;;4.28;61.60
21803;BME280;18591;47.080;22.214;2023-01-31T02:00:55;99131.75;;;4.36;61.18
21803;BME280;18591;47.080;22.214;2023-01-31T02:02:59;99124.53;;;4.45;61.32
21803;BME280;18591;47.080;22.214;2023-01-31T02:05:03;99125.47;;;4.42;61.31
21803;BME280;18591;47.080;22.214;2023-01-31T02:07:08;99129.06;;;4.40;61.67
21803;BME280;18591;47.080;22.214;2023-01-31T02:09:18;99123.75;;;4.38;61.94
21803;BME280;18591;47.080;22.214;2023-01-31T02:13:24;99133.38;;;4.45;61.53
21803;BME280;18591;47.080;22.214;2023-01-31T02:15:26;99138.56;;;4.51;61.26
21803;BME280;18591;47.080;22.214;2023-01-31T02:17:28;99136.19;;;4.36;61.91
21803;BME280;18591;47.080;22.214;2023-01-31T02:22:02;99136.03;;;4.45;61.92
21803;BME280;18591;47.080;22.214;2023-01-31T02:31:57;99146.03;;;4.32;62.22
21803;BME280;18591;47.080;22.214;2023-01-31T02:44:48;99148.78;;;4.28;62.81
21803;BME280;18591;47.080;22.214;2023-01-31T02:51:47;99153.22;;;4.27;62.07
21803;BME280;18591;47.080;22.214;2023-01-31T02:54:16;99156.84;;;4.23;62.64
21803;BME280;18591;47.080;22.214;2023-01-31T02:56:25;99156.69;;;4.31;62.48
21803;BME280;18591;47.080;22.214;2023-01-31T02:58:32;99152.25;;;4.31;62.14
21803;BME280;18591;47.080;22.214;2023-01-31T03:00:38;99151.44;;;4.26;62.53
21803;BME280;18591;47.080;22.214;2023-01-31T03:02:42;99154.03;;;4.31;62.32
21803;BME280;18591;47.080;22.214;2023-01-31T03:04:46;99147.03;;;4.27;62.38
21803;BME280;18591;47.080;22.214;2023-01-31T03:07:00;99148.75;;;4.29;62.40
21803;BME280;18591;47.080;22.214;2023-01-31T03:09:08;99153.06;;;4.35;61.93
21803;BME280;18591;47.080;22.214;2023-01-31T03:11:14;99153.06;;;4.35;62.20
21803;BME280;18591;47.080;22.214;2023-01-31T03:13:46;99144.41;;;4.24;62.91
21803;BME280;18591;47.080;22.214;2023-01-31T03:16:23;99157.59;;;4.30;62.85
21803;BME280;18591;47.080;22.214;2023-01-31T03:19:08;99157.53;;;4.33;62.76
21803;BME280;18591;47.080;22.214;2023-01-31T03:21:38;99158.47;;;4.30;62.91
21803;BME280;18591;47.080;22.214;2023-01-31T03:23:43;99167.25;;;4.35;62.34
21803;BME280;18591;47.080;22.214;2023-01-31T03:25:47;99161.84;;;4.39;62.42
21803;BME280;18591;47.080;22.214;2023-01-31T03:27:54;99166.31;;;4.38;62.31
21803;BME280;18591;47.080;22.214;2023-01-31T03:30:11;99171.56;;;4.41;62.12
21803;BME280;18591;47.080;22.214;2023-01-31T03:32:23;99168.94;;;4.40;62.45
21803;BME280;18591;47.080;22.214;2023-01-31T03:34:26;99164.41;;;4.45;62.15
21803;BME280;18591;47.080;22.214;2023-01-31T03:36:53;99160.91;;;4.43;62.26
21803;BME280;18591;47.080;22.214;2023-01-31T03:41:44;99174.28;;;4.40;62.08
21803;BME280;18591;47.080;22.214;2023-01-31T03:44:00;99172.41;;;4.43;61.97
21803;BME280;18591;47.080;22.214;2023-01-31T03:46:10;99170.63;;;4.45;62.23
21803;BME280;18591;47.080;22.214;2023-01-31T03:48:18;99172.34;;;4.48;62.17
21803;BME280;18591;47.080;22.214;2023-01-31T03:50:46;99169.75;;;4.43;62.10
21803;BME280;18591;47.080;22.214;2023-01-31T03:53:21;99168.13;;;4.36;62.46
21803;BME280;18591;47.080;22.214;2023-01-31T03:55:34;99170.81;;;4.34;62.37
21803;BME280;18591;47.080;22.214;2023-01-31T03:57:39;99170.63;;;4.45;62.19
21803;BME280;18591;47.080;22.214;2023-01-31T03:59:45;99176.88;;;4.41;61.98
21803;BME280;18591;47.080;22.214;2023-01-31T04:01:52;99179.44;;;4.47;62.19
21803;BME280;18591;47.080;22.214;2023-01-31T04:04:01;99187.44;;;4.47;62.25
21803;BME280;18591;47.080;22.214;2023-01-31T04:06:07;99183.03;;;4.45;62.19
21803;BME280;18591;47.080;22.214;2023-01-31T04:08:11;99180.25;;;4.49;61.85
21803;BME280;18591;47.080;22.214;2023-01-31T04:10:18;99181.19;;;4.48;62.04
21803;BME280;18591;47.080;22.214;2023-01-31T04:12:23;99182.91;;;4.52;61.76
21803;BME280;18591;47.080;22.214;2023-01-31T04:14:26;99186.50;;;4.50;62.21
21803;BME280;18591;47.080;22.214;2023-01-31T04:16:28;99181.19;;;4.47;62.35
21803;BME280;18591;47.080;22.214;2023-01-31T04:18:31;99192.75;;;4.46;62.30
21803;BME280;18591;47.080;22.214;2023-01-31T04:20:37;99198.94;;;4.46;62.12
21803;BME280;18591;47.080;22.214;2023-01-31T04:22:39;99199.72;;;4.53;62.07
21803;BME280;18591;47.080;22.214;2023-01-31T04:24:41;99200.72;;;4.47;62.39
21803;BME280;18591;47.080;22.214;2023-01-31T04:26:43;99201.56;;;4.49;62.05
21803;BME280;18591;47.080;22.214;2023-01-31T04:28:48;99204.25;;;4.48;62.17
21803;BME280;18591;47.080;22.214;2023-01-31T04:30:53;99203.38;;;4.47;62.25
21803;BME280;18591;47.080;22.214;2023-01-31T04:32:55;99199.78;;;4.50;62.01
21803;BME280;18591;47.080;22.214;2023-01-31T04:34:58;99203.19;;;4.56;62.00
21803;BME280;18591;47.080;22.214;2023-01-31T04:37:05;99211.38;;;4.47;62.21
21803;BME280;18591;47.080;22.214;2023-01-31T04:39:09;99208.56;;;4.53;62.06
21803;BME280;18591;47.080;22.214;2023-01-31T04:41:12;99219.28;;;4.50;62.06
21803;BME280;18591;47.080;22.214;2023-01-31T04:43:14;99229.06;;;4.50;62.04
21803;BME280;18591;47.080;22.214;2023-01-31T04:45:17;99221.81;;;4.56;62.13
21803;BME280;18591;47.080;22.214;2023-01-31T04:47:22;99228.91;;;4.57;61.99
21803;BME280;18591;47.080;22.214;2023-01-31T04:49:24;99224.56;;;4.52;62.03
21803;BME280;18591;47.080;22.214;2023-01-31T04:51:27;99230.00;;;4.46;62.48
21803;BME280;18591;47.080;22.214;2023-01-31T04:53:29;99235.13;;;4.56;62.10
21803;BME280;18591;47.080;22.214;2023-01-31T04:55:31;99233.38;;;4.55;62.21
21803;BME280;18591;47.080;22.214;2023-01-31T04:57:33;99227.19;;;4.53;62.29
21803;BME280;18591;47.080;22.214;2023-01-31T04:59:35;99227.13;;;4.56;61.94
21803;BME280;18591;47.080;22.214;2023-01-31T05:01:37;99235.09;;;4.58;61.95
21803;BME280;18591;47.080;22.214;2023-01-31T05:03:40;99227.13;;;4.58;61.68
21803;BME280;18591;47.080;22.214;2023-01-31T05:05:42;99220.00;;;4.58;61.90
21803;BME280;18591;47.080;22.214;2023-01-31T05:07:45;99219.06;;;4.63;61.50
21803;BME280;18591;47.080;22.214;2023-01-31T05:09:47;99225.25;;;4.63;61.55
21803;BME280;18591;47.080;22.214;2023-01-31T05:11:52;99227.19;;;4.55;61.75
21803;BME280;18591;47.080;22.214;2023-01-31T05:13:55;99228.84;;;4.61;61.65
21803;BME280;18591;47.080;22.214;2023-01-31T05:15:57;99225.34;;;4.57;61.82
21803;BME280;18591;47.080;22.214;2023-01-31T05:17:59;99222.69;;;4.57;61.65
21803;BME280;18591;47.080;22.214;2023-01-31T05:20:05;99219.06;;;4.63;61.84
21803;BME280;18591;47.080;22.214;2023-01-31T05:22:08;99216.19;;;4.72;61.78
21803;BME280;18591;47.080;22.214;2023-01-31T05:24:10;99219.94;;;4.63;61.90
21803;BME280;18591;47.080;22.214;2023-01-31T05:26:12;99223.38;;;4.68;61.57
21803;BME280;18591;47.080;22.214;2023-01-31T05:28:15;99223.47;;;4.64;61.99
21803;BME280;18591;47.080;22.214;2023-01-31T05:30:18;99227.03;;;4.63;61.92
21803;BME280;18591;47.080;22.214;2023-01-31T05:32:20;99227.00;;;4.64;62.00
21803;BME280;18591;47.080;22.214;2023-01-31T05:34:24;99239.41;;;4.65;62.16
21803;BME280;18591;47.080;22.214;2023-01-31T05:36:26;99240.28;;;4.64;61.90
21803;BME280;18591;47.080;22.214;2023-01-31T05:38:28;99234.81;;;4.72;62.04
21803;BME280;18591;47.080;22.214;2023-01-31T05:40:30;99248.19;;;4.70;61.86
21803;BME280;18591;47.080;22.214;2023-01-31T05:42:32;99265.09;;;4.66;62.33
21803;BME280;18591;47.080;22.214;2023-01-31T05:44:34;99273.94;;;4.67;61.76
21803;BME280;18591;47.080;22.214;2023-01-31T05:46:36;99279.34;;;4.64;62.34
21803;BME280;18591;47.080;22.214;2023-01-31T05:48:39;99282.00;;;4.64;62.51
21803;BME280;18591;47.080;22.214;2023-01-31T05:50:41;99277.59;;;4.63;62.35
21803;BME280;18591;47.080;22.214;2023-01-31T05:52:52;99283.88;;;4.57;62.31
21803;BME280;18591;47.080;22.214;2023-01-31T05:54:54;99281.94;;;4.67;62.16
21803;BME280;18591;47.080;22.214;2023-01-31T05:56:58;99281.97;;;4.65;62.16
21803;BME280;18591;47.080;22.214;2023-01-31T05:59:00;99284.78;;;4.56;62.50
21803;BME280;18591;47.080;22.214;2023-01-31T06:01:04;99281.97;;;4.65;62.26
21803;BME280;18591;47.080;22.214;2023-01-31T06:03:06;99286.31;;;4.71;62.26
21803;BME280;18591;47.080;22.214;2023-01-31T06:05:10;99287.19;;;4.70;62.47
21803;BME280;18591;47.080;22.214;2023-01-31T06:07:12;99297.03;;;4.66;62.30
21803;BME280;18591;47.080;22.214;2023-01-31T06:09:14;99297.09;;;4.62;62.36
21803;BME280;18591;47.080;22.214;2023-01-31T06:11:16;99297.81;;;4.73;62.18
21803;BME280;18591;47.080;22.214;2023-01-31T06:13:19;99305.81;;;4.71;62.28
21803;BME280;18591;47.080;22.214;2023-01-31T06:15:21;99301.28;;;4.76;62.07
21803;BME280;18591;47.080;22.214;2023-01-31T06:17:23;99318.06;;;4.80;62.12
21803;BME280;18591;47.080;22.214;2023-01-31T06:19:31;99310.22;;;4.72;62.24
21803;BME280;18591;47.080;22.214;2023-01-31T06:21:33;99312.03;;;4.70;62.03
21803;BME280;18591;47.080;22.214;2023-01-31T06:23:35;99311.25;;;4.64;62.70
21803;BME280;18591;47.080;22.214;2023-01-31T06:25:37;99314.72;;;4.69;62.40
21803;BME280;18591;47.080;22.214;2023-01-31T06:27:39;99315.50;;;4.75;62.04
21803;BME280;18591;47.080;22.214;2023-01-31T06:29:41;99322.59;;;4.75;61.80
21803;BME280;18591;47.080;22.214;2023-01-31T06:31:44;99329.88;;;4.65;62.21
21803;BME280;18591;47.080;22.214;2023-01-31T06:33:46;99328.88;;;4.71;62.23
21803;BME280;18591;47.080;22.214;2023-01-31T06:35:48;99334.16;;;4.74;61.82
21803;BME280;18591;47.080;22.214;2023-01-31T06:37:50;99324.44;;;4.71;61.84
21803;BME280;18591;47.080;22.214;2023-01-31T06:39:52;99333.22;;;4.75;61.92
21803;BME280;18591;47.080;22.214;2023-01-31T06:41:55;99333.13;;;4.81;61.83
21803;BME280;18591;47.080;22.214;2023-01-31T06:43:59;99333.22;;;4.75;61.97
21803;BME280;18591;47.080;22.214;2023-01-31T06:46:01;99325.22;;;4.78;61.62
21803;BME280;18591;47.080;22.214;2023-01-31T06:48:03;99328.88;;;4.71;62.01
21803;BME280;18591;47.080;22.214;2023-01-31T06:50:06;99333.28;;;4.72;62.03
21803;BME280;18591;47.080;22.214;2023-01-31T06:52:08;99339.47;;;4.74;61.87
21803;BME280;18591;47.080;22.214;2023-01-31T06:54:15;99344.72;;;4.77;61.86
21803;BME280;18591;47.080;22.214;2023-01-31T06:56:18;99348.22;;;4.80;61.91
21803;BME280;18591;47.080;22.214;2023-01-31T06:58:20;99349.19;;;4.76;62.24
21803;BME280;18591;47.080;22.214;2023-01-31T07:00:22;99351.78;;;4.79;62.23
21803;BME280;18591;47.080;22.214;2023-01-31T07:02:26;99346.53;;;4.76;62.29
21803;BME280;18591;47.080;22.214;2023-01-31T07:04:28;99353.56;;;4.79;62.02
21803;BME280;18591;47.080;22.214;2023-01-31T07:06:33;99356.13;;;4.85;62.31
21803;BME280;18591;47.080;22.214;2023-01-31T07:08:36;99356.03;;;4.90;61.96
21803;BME280;18591;47.080;22.214;2023-01-31T07:10:38;99364.16;;;4.82;62.16
21803;BME280;18591;47.080;22.214;2023-01-31T07:12:41;99372.94;;;4.87;61.83
21803;BME280;18591;47.080;22.214;2023-01-31T07:14:43;99380.06;;;4.87;62.06
21803;BME280;18591;47.080;22.214;2023-01-31T07:16:45;99375.69;;;4.83;62.25
21803;BME280;18591;47.080;22.214;2023-01-31T07:18:47;99391.56;;;4.89;62.03
21803;BME280;18591;47.080;22.214;2023-01-31T07:20:49;99387.97;;;4.90;61.98
21803;BME280;18591;47.080;22.214;2023-01-31T07:22:55;99380.97;;;4.86;62.36
21803;BME280;18591;47.080;22.214;2023-01-31T07:24:58;99384.38;;;4.94;61.79
21803;BME280;18591;47.080;22.214;2023-01-31T07:27:00;99383.38;;;4.98;61.77
21803;BME280;18591;47.080;22.214;2023-01-31T07:29:02;99378.06;;;4.98;61.87
21803;BME280;18591;47.080;22.214;2023-01-31T07:31:11;99378.19;;;4.92;61.87
21803;BME280;18591;47.080;22.214;2023-01-31T07:33:13;99375.38;;;5.01;61.77
21803;BME280;18591;47.080;22.214;2023-01-31T07:35:15;99373.00;;;4.84;62.06
21803;BME280;18591;47.080;22.214;2023-01-31T07:37:18;99373.66;;;4.95;62.10
21803;BME280;18591;47.080;22.214;2023-01-31T07:39:20;99378.19;;;4.93;61.75
21803;BME280;18591;47.080;22.214;2023-01-31T07:41:23;99377.25;;;4.96;61.89
21803;BME280;18591;47.080;22.214;2023-01-31T07:43:26;99381.59;;;5.00;61.90
21803;BME280;18591;47.080;22.214;2023-01-31T07:45:28;99388.72;;;4.98;61.73
21803;BME280;18591;47.080;22.214;2023-01-31T07:47:30;99401.22;;;4.94;62.06
21803;BME280;18591;47.080;22.214;2023-01-31T07:49:34;99398.41;;;5.04;61.84
21803;BME280;18591;47.080;22.214;2023-01-31T07:51:36;99398.34;;;5.07;61.71
21803;BME280;18591;47.080;22.214;2023-01-31T07:53:39;99406.41;;;5.02;61.91
21803;BME280;18591;47.080;22.214;2023-01-31T07:55:45;99414.31;;;5.07;61.82
21803;BME280;18591;47.080;22.214;2023-01-31T07:57:50;99417.91;;;5.04;61.90
21803;BME280;18591;47.080;22.214;2023-01-31T07:59:52;99428.50;;;5.09;61.76
21803;BME280;18591;47.080;22.214;2023-01-31T08:01:54;99417.78;;;5.10;61.63
21803;BME280;18591;47.080;22.214;2023-01-31T08:04:16;99420.50;;;5.09;61.94
21803;BME280;18591;47.080;22.214;2023-01-31T08:06:23;99427.38;;;5.20;61.70
21803;BME280;18591;47.080;22.214;2023-01-31T08:08:25;99432.78;;;5.16;61.74
21803;BME280;18591;47.080;22.214;2023-01-31T08:10:27;99423.97;;;5.12;61.67
21803;BME280;18591;47.080;22.214;2023-01-31T08:12:30;99421.25;;;5.17;61.69
21803;BME280;18591;47.080;22.214;2023-01-31T08:14:32;99413.06;;;5.26;61.16
21803;BME280;18591;47.080;22.214;2023-01-31T08:16:34;99418.38;;;5.28;61.26
21803;BME280;18591;47.080;22.214;2023-01-31T08:18:37;99420.97;;;5.29;61.36
21803;BME280;18591;47.080;22.214;2023-01-31T08:20:39;99418.31;;;5.29;61.54
21803;BME280;18591;47.080;22.214;2023-01-31T08:22:42;99424.44;;;5.34;61.59
21803;BME280;18591;47.080;22.214;2023-01-31T08:24:45;99439.56;;;5.34;61.37
21803;BME280;18591;47.080;22.214;2023-01-31T08:26:47;99431.63;;;5.31;61.41
21803;BME280;18591;47.080;22.214;2023-01-31T08:28:50;99438.66;;;5.35;61.46
21803;BME280;18591;47.080;22.214;2023-01-31T08:30:55;99438.53;;;5.41;61.46
21803;BME280;18591;47.080;22.214;2023-01-31T08:33:10;99444.00;;;5.33;61.11
21803;BME280;18591;47.080;22.214;2023-01-31T08:35:13;99457.25;;;5.38;61.10
21803;BME280;18591;47.080;22.214;2023-01-31T08:37:15;99451.84;;;5.42;61.39
21803;BME280;18591;47.080;22.214;2023-01-31T08:39:19;99457.97;;;5.48;60.91
21803;BME280;18591;47.080;22.214;2023-01-31T08:41:22;99459.84;;;5.42;60.75
21803;BME280;18591;47.080;22.214;2023-01-31T08:43:25;99455.41;;;5.41;61.39
21803;BME280;18591;47.080;22.214;2023-01-31T08:45:27;99457.13;;;5.44;61.47
21803;BME280;18591;47.080;22.214;2023-01-31T08:47:31;99466.84;;;5.46;61.57
21803;BME280;18591;47.080;22.214;2023-01-31T08:49:33;99462.16;;;5.61;61.34
21803;BME280;18591;47.080;22.214;2023-01-31T08:51:37;99471.00;;;5.61;61.26
21803;BME280;18591;47.080;22.214;2023-01-31T08:53:41;99477.13;;;5.68;60.82
21803;BME280;18591;47.080;22.214;2023-01-31T08:55:45;99484.03;;;5.78;60.87
21803;BME280;18591;47.080;22.214;2023-01-31T08:57:48;99487.59;;;5.77;60.52
21803;BME280;18591;47.080;22.214;2023-01-31T09:00:00;99493.91;;;5.73;60.54
21803;BME280;18591;47.080;22.214;2023-01-31T09:02:02;99494.78;;;5.74;60.29
21803;BME280;18591;47.080;22.214;2023-01-31T09:04:05;99494.72;;;5.77;60.57
21803;BME280;18591;47.080;22.214;2023-01-31T09:06:10;99493.84;;;5.75;60.39
21803;BME280;18591;47.080;22.214;2023-01-31T09:08:13;99502.56;;;5.83;60.45
21803;BME280;18591;47.080;22.214;2023-01-31T09:10:17;99499.88;;;5.84;60.54
21803;BME280;18591;47.080;22.214;2023-01-31T09:12:20;99501.69;;;5.82;61.15
21803;BME280;18591;47.080;22.214;2023-01-31T09:14:22;99504.09;;;5.98;61.18
21803;BME280;18591;47.080;22.214;2023-01-31T09:16:25;99504.88;;;6.03;61.19
21803;BME280;18591;47.080;22.214;2023-01-31T09:18:27;99508.50;;;6.00;61.35
21803;BME280;18591;47.080;22.214;2023-01-31T09:20:29;99512.94;;;6.01;61.19
21803;BME280;18591;47.080;22.214;2023-01-31T09:22:33;99513.66;;;6.09;61.04
21803;BME280;18591;47.080;22.214;2023-01-31T09:24:36;99519.13;;;6.02;60.67
21803;BME280;18591;47.080;22.214;2023-01-31T09:26:38;99521.88;;;5.99;60.84
21803;BME280;18591;47.080;22.214;2023-01-31T09:28:42;99511.25;;;5.96;61.08
21803;BME280;18591;47.080;22.214;2023-01-31T09:30:44;99515.72;;;5.95;61.18
21803;BME280;18591;47.080;22.214;2023-01-31T09:32:46;99515.56;;;6.03;61.45
21803;BME280;18591;47.080;22.214;2023-01-31T09:34:50;99511.94;;;6.05;61.28
21803;BME280;18591;47.080;22.214;2023-01-31T09:36:53;99512.00;;;6.04;61.64
21803;BME280;18591;47.080;22.214;2023-01-31T09:38:58;99510.91;;;6.13;61.39
21803;BME280;18591;47.080;22.214;2023-01-31T09:43:33;99503.53;;;6.27;61.08
21803;BME280;18591;47.080;22.214;2023-01-31T09:45:39;99511.44;;;6.30;61.38
21803;BME280;18591;47.080;22.214;2023-01-31T09:47:50;99507.84;;;6.31;61.11
21803;BME280;18591;47.080;22.214;2023-01-31T09:49:58;99504.22;;;6.35;61.22
21803;BME280;18591;47.080;22.214;2023-01-31T09:52:02;99510.13;;;6.49;61.07
21803;BME280;18591;47.080;22.214;2023-01-31T09:54:13;99502.25;;;6.43;60.86
21803;BME280;18591;47.080;22.214;2023-01-31T09:56:40;99503.41;;;6.31;62.12
21803;BME280;18591;47.080;22.214;2023-01-31T09:59:46;99510.19;;;6.46;62.02
21803;BME280;18591;47.080;22.214;2023-01-31T10:08:53;99508.56;;;6.78;61.29
21803;BME280;18591;47.080;22.214;2023-01-31T10:11:00;99496.13;;;6.79;61.72
21803;BME280;18591;47.080;22.214;2023-01-31T10:13:15;99493.47;;;6.79;61.48
21803;BME280;18591;47.080;22.214;2023-01-31T10:15:30;99501.41;;;6.80;61.21
21803;BME280;18591;47.080;22.214;2023-01-31T10:17:45;99487.09;;;6.84;60.51
21803;BME280;18591;47.080;22.214;2023-01-31T10:22:14;99510.38;;;6.78;61.23
21803;BME280;18591;47.080;22.214;2023-01-31T10:24:25;99507.75;;;6.76;61.68
21803;BME280;18591;47.080;22.214;2023-01-31T10:26:35;99505.72;;;6.86;62.06
21803;BME280;18591;47.080;22.214;2023-01-31T10:28:44;99502.97;;;6.90;61.40
21803;BME280;18591;47.080;22.214;2023-01-31T10:31:02;99511.91;;;6.88;61.69
21803;BME280;18591;47.080;22.214;2023-01-31T10:35:35;99503.78;;;6.94;60.99
21803;BME280;18591;47.080;22.214;2023-01-31T10:37:54;99504.66;;;6.94;61.20
21803;BME280;18591;47.080;22.214;2023-01-31T10:40:03;99513.63;;;6.90;61.38
21803;BME280;18591;47.080;22.214;2023-01-31T10:44:46;99507.59;;;6.82;60.91
21803;BME280;18591;47.080;22.214;2023-01-31T10:46:55;99506.56;;;6.88;60.86
21803;BME280;18591;47.080;22.214;2023-01-31T10:48:58;99504.72;;;6.91;60.81
21803;BME280;18591;47.080;22.214;2023-01-31T10:53:46;99513.97;;;6.76;61.91
21803;BME280;18591;47.080;22.214;2023-01-31T10:56:10;99499.94;;;6.67;62.40
21803;BME280;18591;47.080;22.214;2023-01-31T10:58:18;99503.53;;;6.66;62.73
21803;BME280;18591;47.080;22.214;2023-01-31T11:00:29;99507.97;;;6.65;62.83
21803;BME280;18591;47.080;22.214;2023-01-31T11:02:32;99506.22;;;6.66;62.64
21803;BME280;18591;47.080;22.214;2023-01-31T11:04:40;99506.84;;;6.75;62.39
21803;BME280;18591;47.080;22.214;2023-01-31T11:06:42;99508.56;;;6.78;62.12
21803;BME280;18591;47.080;22.214;2023-01-31T11:08:50;99505.13;;;6.74;62.70
21803;BME280;18591;47.080;22.214;2023-01-31T11:10:55;99511.59;;;6.63;62.99
21803;BME280;18591;47.080;22.214;2023-01-31T11:13:01;99496.41;;;6.66;62.91
21803;BME280;18591;47.080;22.214;2023-01-31T11:15:15;99499.03;;;6.68;62.61
21803;BME280;18591;47.080;22.214;2023-01-31T11:17:20;99497.88;;;6.80;61.83
21803;BME280;18591;47.080;22.214;2023-01-31T11:19:37;99502.59;;;6.68;62.23
21803;BME280;18591;47.080;22.214;2023-01-31T11:21:48;99505.28;;;6.67;61.81
21803;BME280;18591;47.080;22.214;2023-01-31T11:23:58;99501.66;;;6.71;61.64
21803;BME280;18591;47.080;22.214;2023-01-31T11:26:04;99507.78;;;6.74;61.79
21803;BME280;18591;47.080;22.214;2023-01-31T11:30:24;99494.44;;;6.74;61.33
21803;BME280;18591;47.080;22.214;2023-01-31T11:32:30;99505.03;;;6.78;61.20
21803;BME280;18591;47.080;22.214;2023-01-31T11:34:33;99504.16;;;6.79;61.15
21803;BME280;18591;47.080;22.214;2023-01-31T11:36:42;99500.81;;;6.67;61.59
21803;BME280;18591;47.080;22.214;2023-01-31T11:38:46;99501.69;;;6.68;61.75
21803;BME280;18591;47.080;22.214;2023-01-31T11:40:50;99502.34;;;6.79;61.73
21803;BME280;18591;47.080;22.214;2023-01-31T11:42:58;99504.91;;;6.84;61.55
21803;BME280;18591;47.080;22.214;2023-01-31T11:45:03;99495.03;;;6.87;61.18
21803;BME280;18591;47.080;22.214;2023-01-31T11:47:11;99500.38;;;6.86;61.84
21803;BME280;18591;47.080;22.214;2023-01-31T11:49:21;99496.00;;;6.83;61.67
21803;BME280;18591;47.080;22.214;2023-01-31T11:51:28;99506.81;;;6.79;61.54
21803;BME280;18591;47.080;22.214;2023-01-31T11:53:38;99504.16;;;6.77;61.73
21803;BME280;18591;47.080;22.214;2023-01-31T11:55:45;99503.13;;;6.84;61.76
21803;BME280;18591;47.080;22.214;2023-01-31T11:57:54;99494.94;;;6.90;61.34
21803;BME280;18591;47.080;22.214;2023-01-31T11:59:58;99492.34;;;6.87;61.19